createdAt,value
2023-01-19T00:00:39.997Z,47.88
2023-01-19T00:01:42.790Z,44.75
2023-01-19T00:02:47.361Z,42.70
2023-01-19T00:03:50.635Z,45.13
2023-01-19T00:04:52.562Z,43.47
2023-01-19T00:05:55.397Z,40.53
2023-01-19T00:06:58.577Z,41.90
2023-01-19T00:08:14.532Z,44.35
2023-01-19T00:09:17.366Z,42.72
2023-01-19T00:10:19.356Z,42.08
2023-01-19T00:11:22.164Z,41.95
2023-01-19T00:12:24.186Z,46.08
2023-01-19T00:13:27.129Z,45.05
2023-01-19T00:14:28.885Z,44.65
2023-01-19T00:15:31.617Z,47.25
2023-01-19T00:16:33.669Z,44.85
2023-01-19T00:17:36.551Z,41.58
2023-01-19T00:18:38.304Z,40.78
2023-01-19T00:19:41.082Z,39.85
2023-01-19T00:20:45.105Z,40.83
2023-01-19T00:21:47.968Z,42.28
2023-01-19T00:22:51.156Z,41.58
2023-01-19T00:23:53.942Z,43.72
2023-01-19T00:24:55.724Z,43.60
2023-01-19T00:25:58.679Z,43.55
2023-01-19T00:27:01.618Z,43.83
2023-01-19T00:28:05.127Z,41.90
2023-01-19T00:29:08.820Z,40.42
2023-01-19T00:30:11.706Z,40.60
2023-01-19T00:31:14.505Z,40.47
2023-01-19T00:32:17.800Z,39.88
2023-01-19T00:33:20.514Z,40.50
2023-01-19T00:34:22.344Z,40.75
2023-01-19T00:35:25.218Z,43.08
2023-01-19T00:36:27.059Z,43.50
2023-01-19T00:37:29.841Z,40.83
2023-01-19T00:38:33.040Z,41.47
2023-01-19T00:39:35.739Z,44.42
2023-01-19T00:40:37.597Z,41.83
2023-01-19T00:41:58.065Z,40.13
2023-01-19T00:43:01.416Z,37.05
2023-01-19T00:44:03.505Z,37.72
2023-01-19T00:45:07.275Z,36.00
2023-01-19T00:46:10.279Z,39.17
2023-01-19T00:47:12.058Z,38.35
2023-01-19T00:48:14.919Z,39.15
2023-01-19T00:49:16.753Z,35.97
2023-01-19T00:50:19.572Z,36.65
2023-01-19T00:51:21.407Z,34.47
2023-01-19T00:52:24.146Z,37.65
2023-01-19T00:53:25.974Z,38.58
2023-01-19T00:54:30.200Z,36.40
2023-01-19T00:55:33.189Z,38.13
2023-01-19T00:56:36.074Z,36.45
2023-01-19T00:57:39.715Z,36.53
2023-01-19T00:58:42.414Z,36.47
2023-01-19T00:59:44.225Z,35.30
2023-01-19T01:00:47.125Z,37.72
2023-01-19T01:01:49.114Z,38.42
2023-01-19T01:02:53.638Z,38.40
2023-01-19T01:03:55.947Z,37.50
2023-01-19T01:05:02.802Z,36.33
2023-01-19T01:06:08.210Z,37.35
2023-01-19T01:07:10.374Z,38.58
2023-01-19T01:08:13.276Z,42.30
2023-01-19T01:09:15.107Z,38.05
2023-01-19T01:10:21.488Z,35.88
2023-01-19T01:11:23.336Z,37.63
2023-01-19T01:12:26.375Z,39.22
2023-01-19T01:13:29.613Z,41.25
2023-01-19T01:14:31.721Z,39.00
2023-01-19T01:15:34.688Z,38.65
2023-01-19T01:16:36.597Z,39.72
2023-01-19T01:17:46.416Z,36.25
2023-01-19T01:18:48.197Z,38.30
2023-01-19T01:19:51.634Z,38.97
2023-01-19T01:20:56.074Z,37.25
2023-01-19T01:21:59.091Z,44.90
2023-01-19T01:23:01.271Z,39.33
2023-01-19T01:24:04.576Z,41.60
2023-01-19T01:25:07.192Z,45.35
2023-01-19T01:26:11.738Z,42.40
2023-01-19T01:27:13.564Z,40.10
2023-01-19T01:28:16.358Z,43.13
2023-01-19T01:29:18.161Z,42.25
2023-01-19T01:30:21.574Z,39.40
2023-01-19T01:31:23.377Z,38.63
2023-01-19T01:32:26.485Z,38.22
2023-01-19T01:33:40.496Z,36.55
2023-01-19T01:34:44.568Z,35.80
2023-01-19T01:35:46.470Z,36.42
2023-01-19T01:36:49.217Z,36.88
2023-01-19T01:37:50.978Z,38.97
2023-01-19T01:38:53.893Z,37.03
2023-01-19T01:39:56.079Z,37.75
2023-01-19T01:40:58.871Z,36.72
2023-01-19T01:42:02.952Z,38.95
2023-01-19T01:43:05.788Z,37.50
2023-01-19T01:44:49.438Z,36.65
2023-01-19T01:45:51.358Z,34.72
2023-01-19T01:46:54.251Z,35.95
2023-01-19T01:47:58.265Z,36.03
2023-01-19T01:49:05.060Z,37.85
2023-01-19T01:50:11.491Z,38.33
2023-01-19T01:51:26.962Z,38.75
2023-01-19T01:52:29.892Z,39.13
2023-01-19T01:53:33.884Z,42.15
2023-01-19T01:54:35.712Z,40.28
2023-01-19T01:55:41.577Z,39.67
2023-01-19T01:56:44.567Z,35.95
2023-01-19T01:57:51.376Z,35.20
2023-01-19T01:58:53.606Z,37.05
2023-01-19T01:59:58.206Z,43.28
2023-01-19T02:01:18.565Z,39.72
2023-01-19T02:02:42.131Z,37.67
2023-01-19T02:03:44.022Z,37.97
2023-01-19T02:04:49.652Z,38.00
2023-01-19T02:05:52.188Z,38.17
2023-01-19T02:07:12.603Z,42.72
2023-01-19T02:08:34.961Z,38.58
2023-01-19T02:09:55.773Z,38.58
2023-01-19T02:11:17.028Z,38.45
2023-01-19T02:12:37.771Z,38.38
2023-01-19T02:13:45.174Z,38.63
2023-01-19T02:14:47.223Z,40.53
2023-01-19T02:15:52.838Z,38.70
2023-01-19T02:16:54.654Z,39.33
2023-01-19T02:17:58.434Z,38.25
2023-01-19T02:19:01.312Z,38.53
2023-01-19T02:20:04.227Z,47.95
2023-01-19T02:21:11.496Z,60.63
2023-01-19T02:22:21.123Z,57.70
2023-01-19T02:23:38.419Z,51.53
2023-01-19T02:24:41.181Z,45.90
2023-01-19T02:25:43.287Z,46.50
2023-01-19T02:26:47.886Z,45.28
2023-01-19T02:27:51.838Z,45.70
2023-01-19T02:28:58.268Z,52.42
2023-01-19T02:30:00.487Z,46.10
2023-01-19T02:31:03.304Z,48.17
2023-01-19T02:32:05.687Z,48.33
2023-01-19T02:33:08.537Z,50.25
2023-01-19T02:34:12.457Z,51.58
2023-01-19T02:35:15.835Z,50.67
2023-01-19T02:36:21.414Z,52.78
2023-01-19T02:37:24.501Z,51.15
2023-01-19T02:38:27.631Z,50.13
2023-01-19T02:39:34.720Z,52.15
2023-01-19T02:40:38.747Z,47.67
2023-01-19T02:41:44.452Z,48.67
2023-01-19T02:42:48.664Z,47.33
2023-01-19T02:43:51.498Z,45.17
2023-01-19T02:44:55.050Z,43.25
2023-01-19T02:45:57.940Z,46.60
2023-01-19T02:46:59.730Z,43.83
2023-01-19T02:48:04.920Z,43.40
2023-01-19T02:49:06.707Z,40.50
2023-01-19T02:50:47.418Z,40.05
2023-01-19T02:51:49.658Z,39.85
2023-01-19T02:52:53.767Z,38.75
2023-01-19T02:54:20.253Z,41.40
2023-01-19T02:55:27.834Z,39.83
2023-01-19T02:56:40.158Z,40.22
2023-01-19T02:57:50.576Z,38.58
2023-01-19T02:58:56.906Z,39.35
2023-01-19T03:00:08.016Z,38.42
2023-01-19T03:01:14.650Z,40.05
2023-01-19T03:02:27.398Z,38.92
2023-01-19T03:03:32.327Z,37.85
2023-01-19T03:04:43.321Z,37.33
2023-01-19T03:05:53.874Z,37.30
2023-01-19T03:07:01.654Z,36.63
2023-01-19T03:08:08.572Z,36.25
2023-01-19T03:09:13.349Z,36.08
2023-01-19T03:10:19.263Z,38.00
2023-01-19T03:11:24.947Z,36.33
2023-01-19T03:12:31.549Z,38.13
2023-01-19T03:13:42.366Z,37.03
2023-01-19T03:14:47.463Z,36.50
2023-01-19T03:15:51.900Z,37.35
2023-01-19T03:16:56.172Z,36.38
2023-01-19T03:18:00.774Z,37.78
2023-01-19T03:19:07.878Z,40.75
2023-01-19T03:20:13.719Z,40.75
2023-01-19T03:21:19.600Z,39.13
2023-01-19T03:22:24.351Z,38.92
2023-01-19T03:23:31.292Z,40.42
2023-01-19T03:24:37.139Z,37.58
2023-01-19T03:25:43.889Z,32.67
2023-01-19T03:26:50.040Z,32.35
2023-01-19T03:27:54.936Z,32.83
2023-01-19T03:28:59.946Z,33.22
2023-01-19T03:30:07.015Z,38.40
2023-01-19T03:31:12.992Z,38.08
2023-01-19T03:32:17.998Z,37.30
2023-01-19T03:33:22.738Z,35.35
2023-01-19T03:34:25.484Z,34.13
2023-01-19T03:35:30.134Z,35.78
2023-01-19T03:36:36.263Z,34.13
2023-01-19T03:37:39.708Z,36.00
2023-01-19T03:38:44.184Z,36.58
2023-01-19T03:39:45.986Z,42.15
2023-01-19T03:40:48.751Z,41.85
2023-01-19T03:41:54.265Z,39.17
2023-01-19T03:42:58.236Z,40.45
2023-01-19T03:44:00.685Z,40.25
2023-01-19T03:45:04.370Z,40.20
2023-01-19T03:46:06.655Z,37.47
2023-01-19T03:47:11.547Z,38.40
2023-01-19T03:48:32.395Z,37.28
2023-01-19T03:49:36.039Z,35.67
2023-01-19T03:50:38.055Z,36.60
2023-01-19T03:51:41.187Z,38.22
2023-01-19T03:52:43.126Z,36.25
2023-01-19T03:53:45.895Z,36.15
2023-01-19T03:54:48.158Z,35.53
2023-01-19T03:55:53.470Z,35.70
2023-01-19T03:56:56.578Z,37.03
2023-01-19T03:58:00.168Z,35.15
2023-01-19T03:59:02.048Z,34.67
2023-01-19T04:00:05.776Z,34.55
2023-01-19T04:01:14.870Z,34.15
2023-01-19T04:02:17.837Z,34.25
2023-01-19T04:03:19.911Z,34.42
2023-01-19T04:04:22.773Z,33.13
2023-01-19T04:05:24.720Z,33.80
2023-01-19T04:06:28.106Z,34.10
2023-01-19T04:07:30.033Z,35.85
2023-01-19T04:08:32.828Z,35.25
2023-01-19T04:09:34.572Z,34.88
2023-01-19T04:10:37.640Z,35.70
2023-01-19T04:11:39.386Z,35.58
2023-01-19T04:12:43.573Z,37.58
2023-01-19T04:13:46.468Z,36.05
2023-01-19T04:14:48.235Z,34.88
2023-01-19T04:15:51.067Z,35.38
2023-01-19T04:16:52.915Z,39.25
2023-01-19T04:17:55.959Z,42.60
2023-01-19T04:18:57.753Z,39.90
2023-01-19T04:20:00.847Z,41.35
2023-01-19T04:21:04.648Z,38.15
2023-01-19T04:22:07.406Z,38.03
2023-01-19T04:23:09.223Z,39.08
2023-01-19T04:24:12.155Z,38.55
2023-01-19T04:25:14.034Z,42.67
2023-01-19T04:26:17.322Z,42.55
2023-01-19T04:27:19.493Z,45.10
2023-01-19T04:28:23.546Z,47.28
2023-01-19T04:29:25.458Z,43.95
2023-01-19T04:30:28.449Z,52.90
2023-01-19T04:31:31.233Z,56.05
2023-01-19T04:32:34.466Z,50.55
2023-01-19T04:33:36.307Z,49.95
2023-01-19T04:34:39.058Z,49.35
2023-01-19T04:35:42.331Z,54.58
2023-01-19T04:36:45.317Z,47.92
2023-01-19T04:37:47.093Z,48.92
2023-01-19T04:38:49.995Z,48.35
2023-01-19T04:39:51.800Z,51.63
2023-01-19T04:40:55.295Z,48.13
2023-01-19T04:41:57.569Z,53.35
2023-01-19T04:43:00.564Z,53.90
2023-01-19T04:44:04.458Z,49.13
2023-01-19T04:45:08.706Z,53.78
2023-01-19T04:46:10.697Z,47.88
2023-01-19T04:47:13.458Z,49.85
2023-01-19T04:48:15.914Z,48.30
2023-01-19T04:49:18.688Z,47.10
2023-01-19T04:50:20.566Z,46.85
2023-01-19T04:51:23.426Z,45.97
2023-01-19T04:52:25.572Z,47.30
2023-01-19T04:53:28.403Z,44.85
2023-01-19T04:54:30.507Z,47.45
2023-01-19T04:55:33.414Z,49.30
2023-01-19T04:56:35.733Z,45.63
2023-01-19T04:57:38.547Z,41.20
2023-01-19T04:58:40.325Z,43.00
2023-01-19T04:59:44.403Z,42.03
2023-01-19T05:00:46.383Z,42.03
2023-01-19T05:01:49.136Z,39.90
2023-01-19T05:02:51.159Z,42.20
2023-01-19T05:03:54.423Z,40.53
2023-01-19T05:04:56.460Z,42.00
2023-01-19T05:05:59.322Z,43.33
2023-01-19T05:07:01.627Z,40.25
2023-01-19T05:08:04.489Z,42.47
2023-01-19T05:09:07.911Z,43.63
2023-01-19T05:10:12.396Z,40.90
2023-01-19T05:11:14.646Z,39.85
2023-01-19T05:12:17.640Z,42.63
2023-01-19T05:13:19.839Z,45.90
2023-01-19T05:14:22.805Z,42.65
2023-01-19T05:15:25.898Z,42.03
2023-01-19T05:16:28.973Z,42.85
2023-01-19T05:17:30.914Z,42.70
2023-01-19T05:18:36.260Z,44.78
2023-01-19T05:19:38.603Z,42.60
2023-01-19T05:20:41.532Z,44.03
2023-01-19T05:21:43.561Z,49.53
2023-01-19T05:22:50.441Z,48.13
2023-01-19T05:23:52.178Z,45.92
2023-01-19T05:24:54.874Z,45.70
2023-01-19T05:25:56.783Z,44.97
2023-01-19T05:27:00.231Z,47.20
2023-01-19T05:28:03.974Z,50.35
2023-01-19T05:29:05.833Z,44.47
2023-01-19T05:30:10.151Z,44.47
2023-01-19T05:31:13.411Z,44.28
2023-01-19T05:32:16.483Z,43.28
2023-01-19T05:33:18.268Z,40.40
2023-01-19T05:34:21.180Z,41.25
2023-01-19T05:35:35.289Z,40.70
2023-01-19T05:36:38.957Z,47.00
2023-01-19T05:37:40.992Z,46.63
2023-01-19T05:38:44.195Z,49.20
2023-01-19T05:39:45.969Z,49.30
2023-01-19T05:40:48.903Z,46.42
2023-01-19T05:41:50.914Z,46.33
2023-01-19T05:42:54.216Z,45.47
2023-01-19T05:43:56.099Z,48.80
2023-01-19T05:44:59.453Z,43.35
2023-01-19T05:46:02.226Z,37.67
2023-01-19T05:47:06.558Z,39.70
2023-01-19T05:48:09.508Z,40.65
2023-01-19T05:49:13.433Z,41.58
2023-01-19T05:50:15.820Z,40.50
2023-01-19T05:51:18.637Z,40.08
2023-01-19T05:52:20.409Z,38.95
2023-01-19T05:53:23.222Z,39.95
2023-01-19T05:54:25.470Z,42.78
2023-01-19T05:55:28.704Z,40.95
2023-01-19T05:56:31.419Z,39.25
2023-01-19T05:57:33.457Z,43.65
2023-01-19T05:58:37.773Z,40.40
2023-01-19T05:59:40.512Z,41.67
2023-01-19T06:00:42.786Z,41.25
2023-01-19T06:01:45.581Z,40.15
2023-01-19T06:02:49.328Z,41.72
2023-01-19T06:03:52.319Z,44.72
2023-01-19T06:04:54.602Z,42.58
2023-01-19T06:05:58.312Z,43.92
2023-01-19T06:07:00.128Z,42.75
2023-01-19T06:08:02.970Z,42.35
2023-01-19T06:09:04.824Z,40.47
2023-01-19T06:10:08.831Z,42.45
2023-01-19T06:11:11.010Z,42.85
2023-01-19T06:12:13.729Z,41.20
2023-01-19T06:13:15.874Z,40.92
2023-01-19T06:14:18.668Z,39.22
2023-01-19T06:15:20.448Z,38.75
2023-01-19T06:16:23.259Z,38.30
2023-01-19T06:17:25.080Z,36.60
2023-01-19T06:18:29.423Z,38.92
2023-01-19T06:19:32.436Z,39.85
2023-01-19T06:20:34.211Z,39.47
2023-01-19T06:21:37.003Z,39.13
2023-01-19T06:22:39.862Z,41.60
2023-01-19T06:23:42.710Z,39.53
2023-01-19T06:24:44.635Z,45.20
2023-01-19T06:25:47.493Z,44.60
2023-01-19T06:26:49.243Z,50.10
2023-01-19T06:27:52.028Z,42.72
2023-01-19T06:28:54.323Z,41.03
2023-01-19T06:29:57.281Z,44.90
2023-01-19T06:30:59.141Z,44.42
2023-01-19T06:32:02.066Z,41.83
2023-01-19T06:33:04.031Z,43.35
2023-01-19T06:34:08.321Z,44.78
2023-01-19T06:35:11.117Z,47.85
2023-01-19T06:36:13.845Z,46.95
2023-01-19T06:37:16.714Z,47.90
2023-01-19T06:38:20.404Z,46.47
2023-01-19T06:39:22.282Z,46.22
2023-01-19T06:40:25.139Z,45.90
2023-01-19T06:41:28.328Z,43.25
2023-01-19T06:42:30.080Z,43.03
2023-01-19T06:43:32.931Z,44.95
2023-01-19T06:44:35.948Z,43.83
2023-01-19T06:45:38.642Z,48.55
2023-01-19T06:46:41.631Z,45.28
2023-01-19T06:47:43.669Z,47.58
2023-01-19T06:48:46.393Z,50.65
2023-01-19T06:49:49.520Z,48.40
2023-01-19T06:50:52.552Z,47.13
2023-01-19T06:51:54.348Z,47.53
2023-01-19T06:52:57.218Z,46.75
2023-01-19T06:54:00.113Z,49.88
2023-01-19T06:55:01.958Z,45.33
2023-01-19T06:56:04.957Z,46.35
2023-01-19T06:57:07.065Z,46.42
2023-01-19T06:58:09.852Z,48.58
2023-01-19T06:59:12.387Z,49.53
2023-01-19T07:00:16.241Z,49.50
2023-01-19T07:01:18.296Z,49.90
2023-01-19T07:02:26.294Z,51.83
2023-01-19T07:03:30.511Z,48.05
2023-01-19T07:04:33.862Z,51.47
2023-01-19T07:05:38.072Z,50.08
2023-01-19T07:06:41.559Z,44.88
2023-01-19T07:07:44.865Z,45.20
2023-01-19T07:08:47.590Z,45.97
2023-01-19T07:09:49.431Z,45.38
2023-01-19T07:11:24.688Z,45.40
2023-01-19T07:12:23.777Z,40.83
2023-01-19T07:13:25.616Z,41.45
2023-01-19T07:14:33.461Z,42.92
2023-01-19T07:15:35.504Z,40.85
2023-01-19T07:16:38.283Z,41.58
2023-01-19T07:17:42.031Z,42.17
2023-01-19T07:18:45.221Z,43.88
2023-01-19T07:19:46.962Z,45.63
2023-01-19T07:20:52.026Z,43.88
2023-01-19T07:21:53.882Z,41.22
2023-01-19T07:22:57.066Z,41.92
2023-01-19T07:23:59.918Z,42.60
2023-01-19T07:25:02.723Z,45.45
2023-01-19T07:26:05.608Z,43.35
2023-01-19T07:27:08.509Z,45.17
2023-01-19T07:28:11.687Z,47.95
2023-01-19T07:29:14.566Z,52.15
2023-01-19T07:30:16.939Z,42.65
2023-01-19T07:31:20.391Z,43.47
2023-01-19T07:32:22.215Z,50.40
2023-01-19T07:33:26.521Z,48.53
2023-01-19T07:34:28.330Z,50.08
2023-01-19T07:35:31.093Z,51.00
2023-01-19T07:36:34.250Z,56.45
2023-01-19T07:37:38.392Z,52.13
2023-01-19T07:38:41.656Z,48.75
2023-01-19T07:39:43.452Z,53.42
2023-01-19T07:40:46.873Z,50.58
2023-01-19T07:41:48.778Z,45.03
2023-01-19T07:42:52.086Z,48.80
2023-01-19T07:43:54.151Z,55.20
2023-01-19T07:44:56.911Z,54.50
2023-01-19T07:46:00.459Z,60.45
2023-01-19T07:47:06.044Z,55.42
2023-01-19T07:48:07.888Z,72.40
2023-01-19T07:49:11.574Z,68.82
2023-01-19T07:50:13.754Z,77.40
2023-01-19T07:51:18.756Z,69.70
2023-01-19T07:52:23.012Z,77.95
2023-01-19T07:53:24.915Z,77.22
2023-01-19T07:54:27.716Z,65.47
2023-01-19T07:55:29.495Z,69.43
2023-01-19T07:56:33.925Z,66.57
2023-01-19T07:57:36.393Z,58.97
2023-01-19T07:58:40.060Z,58.40
2023-01-19T07:59:43.855Z,54.22
2023-01-19T08:00:46.707Z,56.45
2023-01-19T08:01:49.539Z,50.40
2023-01-19T08:02:51.990Z,50.53
2023-01-19T08:03:54.736Z,55.22
2023-01-19T08:04:57.674Z,55.35
2023-01-19T08:06:02.362Z,56.10
2023-01-19T08:07:05.083Z,56.95
2023-01-19T08:08:09.176Z,55.80
2023-01-19T08:09:11.991Z,52.95
2023-01-19T08:10:15.793Z,58.78
2023-01-19T08:11:17.637Z,55.97
2023-01-19T08:12:20.417Z,58.00
2023-01-19T08:13:23.164Z,61.97
2023-01-19T08:14:24.903Z,65.25
2023-01-19T08:15:28.267Z,71.43
2023-01-19T08:16:31.082Z,64.30
2023-01-19T08:17:34.126Z,59.50
2023-01-19T08:18:35.928Z,53.97
2023-01-19T08:19:41.367Z,49.97
2023-01-19T08:20:44.447Z,50.35
2023-01-19T08:21:47.319Z,52.83
2023-01-19T08:22:49.164Z,55.58
2023-01-19T08:23:56.902Z,56.45
2023-01-19T08:24:59.865Z,53.40
2023-01-19T08:26:02.894Z,56.65
2023-01-19T08:27:04.714Z,54.13
2023-01-19T08:28:08.161Z,57.20
2023-01-19T08:29:09.920Z,55.78
2023-01-19T08:30:13.098Z,51.00
2023-01-19T08:31:21.234Z,56.40
2023-01-19T08:32:25.820Z,57.28
2023-01-19T08:33:27.587Z,53.85
2023-01-19T08:34:31.979Z,47.58
2023-01-19T08:35:36.915Z,49.33
2023-01-19T08:36:39.675Z,46.72
2023-01-19T08:37:41.533Z,48.67
2023-01-19T08:38:45.655Z,45.10
2023-01-19T08:39:49.750Z,46.30
2023-01-19T08:40:51.608Z,44.30
2023-01-19T08:41:54.800Z,42.72
2023-01-19T08:43:00.967Z,40.60
2023-01-19T08:44:03.930Z,40.08
2023-01-19T08:45:06.984Z,41.08
2023-01-19T08:46:09.780Z,41.60
2023-01-19T08:47:12.645Z,42.88
2023-01-19T08:48:15.253Z,43.35
2023-01-19T08:49:18.035Z,47.20
2023-01-19T08:50:19.869Z,49.47
2023-01-19T08:51:22.656Z,48.33
2023-01-19T08:52:26.673Z,53.28
2023-01-19T08:53:29.526Z,49.13
2023-01-19T08:54:32.236Z,53.40
2023-01-19T08:55:36.364Z,50.17
2023-01-19T08:56:39.187Z,51.00
2023-01-19T08:57:41.095Z,45.15
2023-01-19T08:58:46.697Z,44.45
2023-01-19T08:59:51.167Z,47.83
2023-01-19T09:00:54.122Z,48.25
2023-01-19T09:01:57.029Z,47.92
2023-01-19T09:03:18.524Z,51.58
2023-01-19T09:04:21.525Z,46.40
2023-01-19T09:05:23.724Z,47.80
2023-01-19T09:06:27.966Z,47.63
2023-01-19T09:07:31.515Z,48.88
2023-01-19T09:08:36.830Z,50.78
2023-01-19T09:09:43.584Z,50.33
2023-01-19T09:10:48.838Z,63.67
2023-01-19T09:11:51.572Z,85.40
2023-01-19T09:12:53.463Z,69.63
2023-01-19T09:13:56.661Z,92.32
2023-01-19T09:14:58.535Z,88.18
2023-01-19T09:16:03.607Z,85.20
2023-01-19T09:17:07.376Z,79.55
2023-01-19T09:18:12.051Z,85.15
2023-01-19T09:19:14.820Z,78.20
2023-01-19T09:20:17.000Z,79.55
2023-01-19T09:21:19.813Z,64.63
2023-01-19T09:22:21.611Z,62.05
2023-01-19T09:23:25.348Z,52.47
2023-01-19T09:24:27.243Z,48.08
2023-01-19T09:25:30.056Z,44.53
2023-01-19T09:26:34.195Z,47.97
2023-01-19T09:27:36.023Z,61.22
2023-01-19T09:28:39.669Z,51.85
2023-01-19T09:29:41.719Z,46.80
2023-01-19T09:30:44.960Z,47.70
2023-01-19T09:31:47.793Z,45.22
2023-01-19T09:32:49.713Z,44.85
2023-01-19T09:33:52.511Z,43.83
2023-01-19T09:34:56.757Z,44.60
2023-01-19T09:36:00.059Z,44.97
2023-01-19T09:37:03.729Z,45.58
2023-01-19T09:38:07.379Z,44.47
2023-01-19T09:39:11.092Z,42.97
2023-01-19T09:40:13.442Z,45.30
2023-01-19T09:41:21.150Z,49.17
2023-01-19T09:42:28.237Z,46.45
2023-01-19T09:43:36.751Z,44.60
2023-01-19T09:44:39.884Z,44.10
2023-01-19T09:45:46.356Z,45.95
2023-01-19T09:46:49.223Z,45.08
2023-01-19T09:47:52.239Z,44.72
2023-01-19T09:48:58.151Z,46.05
2023-01-19T09:50:05.530Z,48.38
2023-01-19T09:51:15.340Z,46.80
2023-01-19T09:52:20.371Z,43.40
2023-01-19T09:53:27.856Z,43.80
2023-01-19T09:54:35.789Z,43.38
2023-01-19T09:55:41.090Z,43.70
2023-01-19T09:56:45.793Z,44.28
2023-01-19T09:57:49.986Z,42.45
2023-01-19T09:58:53.166Z,39.60
2023-01-19T09:59:59.510Z,41.35
2023-01-19T10:01:08.538Z,39.97
2023-01-19T10:02:23.950Z,39.35
2023-01-19T10:03:26.828Z,38.60
2023-01-19T10:04:31.505Z,37.08
2023-01-19T10:05:39.454Z,36.42
2023-01-19T10:06:41.197Z,36.67
2023-01-19T10:07:54.517Z,36.45
2023-01-19T10:09:04.141Z,36.75
2023-01-19T10:10:16.685Z,35.88
2023-01-19T10:11:34.486Z,39.13
2023-01-19T10:12:52.569Z,40.17
2023-01-19T10:13:55.130Z,39.67
2023-01-19T10:15:04.050Z,38.70
2023-01-19T10:16:18.543Z,37.10
2023-01-19T10:17:28.518Z,37.00
2023-01-19T10:18:45.806Z,35.95
2023-01-19T10:19:50.324Z,34.15
2023-01-19T10:20:55.860Z,36.35
2023-01-19T10:22:00.183Z,36.22
2023-01-19T10:23:05.752Z,36.97
2023-01-19T10:24:15.983Z,35.97
2023-01-19T10:25:20.351Z,38.20
2023-01-19T10:26:25.150Z,36.53
2023-01-19T10:27:29.998Z,36.35
2023-01-19T10:28:33.583Z,36.03
2023-01-19T10:29:38.363Z,39.10
2023-01-19T10:30:42.517Z,37.40
2023-01-19T10:31:46.605Z,36.92
2023-01-19T10:32:48.458Z,40.47
2023-01-19T10:33:52.281Z,38.70
2023-01-19T10:34:54.887Z,42.50
2023-01-19T10:35:57.780Z,42.97
2023-01-19T10:37:05.490Z,47.38
2023-01-19T10:38:12.476Z,46.65
2023-01-19T10:39:17.303Z,49.30
2023-01-19T10:40:29.804Z,49.28
2023-01-19T10:41:41.626Z,50.80
2023-01-19T10:42:44.370Z,50.00
2023-01-19T10:43:49.005Z,46.88
2023-01-19T10:44:50.836Z,48.28
2023-01-19T10:45:53.951Z,47.38
2023-01-19T10:46:58.485Z,46.83
2023-01-19T10:48:05.890Z,44.35
2023-01-19T10:49:23.236Z,45.35
2023-01-19T10:50:28.147Z,44.60
2023-01-19T10:51:30.889Z,46.33
2023-01-19T10:52:35.507Z,51.53
2023-01-19T10:53:38.584Z,50.30
2023-01-19T10:54:44.595Z,50.15
2023-01-19T10:55:46.618Z,48.70
2023-01-19T10:56:52.790Z,51.00
2023-01-19T10:57:55.375Z,49.92
2023-01-19T10:59:01.076Z,51.53
2023-01-19T11:00:05.720Z,50.50
2023-01-19T11:01:16.353Z,47.80
2023-01-19T11:02:21.232Z,46.72
2023-01-19T11:03:24.740Z,46.70
2023-01-19T11:04:29.672Z,48.55
2023-01-19T11:05:33.071Z,45.53
2023-01-19T11:06:35.873Z,45.88
2023-01-19T11:07:38.604Z,47.35
2023-01-19T11:08:41.046Z,45.70
2023-01-19T11:09:43.802Z,43.47
2023-01-19T11:10:53.713Z,41.67
2023-01-19T11:11:56.823Z,40.40
2023-01-19T11:13:03.083Z,41.15
2023-01-19T11:14:10.337Z,38.70
2023-01-19T11:15:16.913Z,38.65
2023-01-19T11:16:24.063Z,40.10
2023-01-19T11:17:27.097Z,37.72
2023-01-19T11:18:31.174Z,38.50
2023-01-19T11:19:34.871Z,38.50
2023-01-19T11:20:44.115Z,38.25
2023-01-19T11:21:45.966Z,39.45
2023-01-19T11:22:49.096Z,36.08
2023-01-19T11:23:52.343Z,35.55
2023-01-19T11:24:59.640Z,34.97
2023-01-19T11:26:03.129Z,35.80
2023-01-19T11:27:06.017Z,35.60
2023-01-19T11:28:18.534Z,36.70
2023-01-19T11:29:24.192Z,33.75
2023-01-19T11:30:27.662Z,30.42
2023-01-19T11:31:32.846Z,33.63
2023-01-19T11:32:37.081Z,32.72
2023-01-19T11:33:42.408Z,32.05
2023-01-19T11:34:45.485Z,32.65
2023-01-19T11:35:50.064Z,32.05
2023-01-19T11:36:57.348Z,33.15
2023-01-19T11:38:23.178Z,31.90
2023-01-19T11:39:28.147Z,32.25
2023-01-19T11:40:30.052Z,30.92
2023-01-19T11:41:35.330Z,32.42
2023-01-19T11:42:38.346Z,32.60
2023-01-19T11:43:49.103Z,31.92
2023-01-19T11:45:00.425Z,32.45
2023-01-19T11:46:02.953Z,33.58
2023-01-19T11:47:07.961Z,33.00
2023-01-19T11:48:15.681Z,32.33
2023-01-19T11:49:23.263Z,36.08
2023-01-19T11:50:29.667Z,31.05
2023-01-19T11:51:37.534Z,30.38
2023-01-19T11:52:43.195Z,32.92
2023-01-19T11:53:49.614Z,32.40
2023-01-19T11:54:56.707Z,32.90
2023-01-19T11:55:59.777Z,30.65
2023-01-19T11:57:02.901Z,28.40
2023-01-19T11:58:06.402Z,27.20
2023-01-19T11:59:09.693Z,28.02
2023-01-19T12:00:23.888Z,26.98
2023-01-19T12:01:30.088Z,28.67
2023-01-19T12:02:42.906Z,29.27
2023-01-19T12:03:48.033Z,28.70
2023-01-19T12:04:50.520Z,29.77
2023-01-19T12:05:54.325Z,27.35
2023-01-19T12:06:58.493Z,28.05
2023-01-19T12:08:06.637Z,28.00
2023-01-19T12:09:14.840Z,31.67
2023-01-19T12:10:23.954Z,34.08
2023-01-19T12:11:30.182Z,30.30
2023-01-19T12:12:35.312Z,27.95
2023-01-19T12:13:38.473Z,30.48
2023-01-19T12:14:43.129Z,28.25
2023-01-19T12:15:47.574Z,30.60
2023-01-19T12:16:52.188Z,26.85
2023-01-19T12:17:56.269Z,28.48
2023-01-19T12:19:01.323Z,30.35
2023-01-19T12:20:14.916Z,32.03
2023-01-19T12:21:18.765Z,40.50
2023-01-19T12:22:22.517Z,37.70
2023-01-19T12:23:33.514Z,35.88
2023-01-19T12:24:40.857Z,32.38
2023-01-19T12:25:53.907Z,33.13
2023-01-19T12:26:59.302Z,31.77
2023-01-19T12:28:01.168Z,28.45
2023-01-19T12:29:08.053Z,30.00
2023-01-19T12:30:18.483Z,31.52
2023-01-19T12:31:23.893Z,26.08
2023-01-19T12:32:34.651Z,29.90
2023-01-19T12:33:38.668Z,28.05
2023-01-19T12:34:42.381Z,27.45
2023-01-19T12:35:59.463Z,28.77
2023-01-19T12:37:04.698Z,28.65
2023-01-19T12:38:24.535Z,26.77
2023-01-19T12:39:27.469Z,26.58
2023-01-19T12:40:35.108Z,25.95
2023-01-19T12:41:38.633Z,24.55
2023-01-19T12:42:45.103Z,26.65
2023-01-19T12:43:49.029Z,26.15
2023-01-19T12:44:53.914Z,27.23
2023-01-19T12:45:55.760Z,26.35
2023-01-19T12:47:04.181Z,28.80
2023-01-19T12:48:11.946Z,32.33
2023-01-19T12:49:21.693Z,33.20
2023-01-19T12:50:26.743Z,35.92
2023-01-19T12:51:28.606Z,38.20
2023-01-19T12:52:34.613Z,38.47
2023-01-19T12:53:37.618Z,40.53
2023-01-19T12:54:42.078Z,40.35
2023-01-19T12:55:46.813Z,38.92
2023-01-19T12:56:49.435Z,38.97
2023-01-19T12:57:56.613Z,38.22
2023-01-19T12:58:58.971Z,39.45
2023-01-19T13:00:03.751Z,43.35
2023-01-19T13:01:18.275Z,37.90
2023-01-19T13:02:42.117Z,37.00
2023-01-19T13:03:48.070Z,36.53
2023-01-19T13:05:10.195Z,41.20
2023-01-19T13:06:12.980Z,34.70
2023-01-19T13:07:18.003Z,36.08
2023-01-19T13:08:25.108Z,33.00
2023-01-19T13:09:30.675Z,35.35
2023-01-19T13:11:19.983Z,35.05
2023-01-19T13:12:24.598Z,34.58
2023-01-19T13:13:28.443Z,33.15
2023-01-19T13:14:35.943Z,33.45
2023-01-19T13:15:37.959Z,36.35
2023-01-19T13:16:58.993Z,35.78
2023-01-19T13:18:03.546Z,34.67
2023-01-19T13:19:16.341Z,34.50
2023-01-19T13:20:44.613Z,34.88
2023-01-19T13:21:47.498Z,32.10
2023-01-19T13:23:20.374Z,33.15
2023-01-19T13:24:22.842Z,31.98
2023-01-19T13:25:30.528Z,34.63
2023-01-19T13:26:34.699Z,33.55
2023-01-19T13:27:37.543Z,32.80
2023-01-19T13:28:43.000Z,34.20
2023-01-19T13:29:44.959Z,35.75
2023-01-19T13:30:55.672Z,34.58
2023-01-19T13:32:02.730Z,34.80
2023-01-19T13:33:15.709Z,35.20
2023-01-19T13:34:20.665Z,35.20
2023-01-19T13:35:24.064Z,33.53
2023-01-19T13:36:31.052Z,33.10
2023-01-19T13:37:35.860Z,32.67
2023-01-19T13:38:38.717Z,33.75
2023-01-19T13:39:44.500Z,31.98
2023-01-19T13:40:47.391Z,29.40
2023-01-19T13:41:53.899Z,32.53
2023-01-19T13:42:57.473Z,30.98
2023-01-19T13:44:03.039Z,30.85
2023-01-19T13:45:16.541Z,31.75
2023-01-19T13:46:19.609Z,30.77
2023-01-19T13:47:23.452Z,30.33
2023-01-19T13:48:28.255Z,29.50
2023-01-19T13:49:33.059Z,30.00
2023-01-19T13:50:38.648Z,29.75
2023-01-19T13:51:41.496Z,29.13
2023-01-19T13:52:43.474Z,31.15
2023-01-19T13:53:55.262Z,36.80
2023-01-19T13:55:03.070Z,30.10